Time;durP1;ratioP1;P1;durP2;ratioP2;P2;SDS_P1;SDS_P2;PMS_P1;PMS_P2;Temp;Humidity;BMP_temperature;BMP_pressure;BME280_temperature;BME280_humidity;BME280_pressure;Samples;Min_cycle;Max_cycle;Signal;HPM_P1;HPM_P2
2022/08/21 00:00:32;;;;;;;7.68;5.32;;;;;;;19.70;100.00;99552.84;5112899;28;20469;-69
2022/08/21 00:03:04;;;;;;;6.22;5.28;;;;;;;19.73;100.00;99556.03;5114417;28;20044;-69
2022/08/21 00:05:36;;;;;;;7.30;5.30;;;;;;;19.78;100.00;99547.41;5114418;28;20118;-70
2022/08/21 00:08:05;;;;;;;7.25;5.13;;;;;;;19.64;100.00;99545.38;5114395;28;20036;-70
2022/08/21 00:10:33;;;;;;;9.80;5.30;;;;;;;19.62;100.00;99544.69;5113919;28;20053;-70
2022/08/21 00:13:02;;;;;;;7.28;5.32;;;;;;;19.61;100.00;99540.31;5114275;28;20424;-70
2022/08/21 00:15:33;;;;;;;6.32;5.07;;;;;;;19.60;100.00;99535.91;5112500;28;20408;-70
2022/08/21 00:18:02;;;;;;;7.80;5.30;;;;;;;19.60;100.00;99530.50;5113844;28;20083;-70
2022/08/21 00:20:31;;;;;;;7.85;4.80;;;;;;;19.54;100.00;99544.66;5114218;28;20067;-70
2022/08/21 00:22:59;;;;;;;7.38;4.70;;;;;;;19.49;100.00;99533.47;5112869;28;20044;-69
2022/08/21 00:25:27;;;;;;;6.10;4.78;;;;;;;19.42;100.00;99534.16;5113956;28;20055;-70
2022/08/21 00:27:56;;;;;;;6.25;4.85;;;;;;;19.41;100.00;99535.19;5113918;28;20389;-70
2022/08/21 00:30:26;;;;;;;9.05;5.53;;;;;;;19.36;100.00;99542.94;5113665;28;20145;-69
2022/08/21 00:32:58;;;;;;;6.63;4.53;;;;;;;19.32;100.00;99536.16;5113759;28;20039;-69
2022/08/21 00:35:31;;;;;;;6.68;4.90;;;;;;;19.29;100.00;99528.38;5113449;28;20127;-70
2022/08/21 00:37:59;;;;;;;;;;;;;;;19.40;100.00;99536.19;5114402;28;20123;-70
2022/08/21 00:40:31;;;;;;;6.55;5.28;;;;;;;19.35;100.00;99541.22;5113496;28;19955;-70
2022/08/21 00:43:00;;;;;;;7.68;5.70;;;;;;;19.25;100.00;99543.25;5113568;28;20036;-70
2022/08/21 00:45:29;;;;;;;6.95;5.70;;;;;;;19.25;100.00;99537.00;5111747;28;20403;-71
2022/08/21 00:47:59;;;;;;;7.63;5.85;;;;;;;19.21;100.00;99544.59;5113706;28;20044;-69
2022/08/21 00:50:32;;;;;;;8.70;6.40;;;;;;;19.24;100.00;99538.84;5113376;28;20127;-70
2022/08/21 00:53:01;;;;;;;9.73;5.78;;;;;;;19.27;100.00;99549.31;5113555;28;20377;-70
2022/08/21 00:55:31;;;;;;;8.23;5.88;;;;;;;19.18;100.00;99542.19;5113184;28;20055;-71
2022/08/21 00:58:02;;;;;;;8.18;6.18;;;;;;;19.08;100.00;99545.03;5113305;28;20040;-70
2022/08/21 01:00:40;;;;;;;8.07;6.40;;;;;;;19.12;100.00;99545.56;5113269;28;20043;-70
2022/08/21 01:03:13;;;;;;;8.02;6.35;;;;;;;19.11;100.00;99544.72;5113631;28;20040;-69
2022/08/21 01:05:42;;;;;;;;;;;;;;;19.08;100.00;99544.19;5113745;28;20048;-70
2022/08/21 01:08:11;;;;;;;8.70;6.97;;;;;;;19.05;100.00;99547.22;5113101;28;20006;-71
2022/08/21 01:10:39;;;;;;;8.80;6.82;;;;;;;19.02;100.00;99543.00;5112753;28;20071;-71
2022/08/21 01:13:12;;;;;;;8.40;6.53;;;;;;;18.97;100.00;99536.38;5111773;28;20453;-70
2022/08/21 01:15:46;;;;;;;8.63;7.45;;;;;;;18.93;100.00;99535.03;5112896;28;20446;-70
2022/08/21 01:18:18;;;;;;;8.25;6.93;;;;;;;18.96;100.00;99529.28;5113318;28;20035;-70
2022/08/21 01:21:01;;;;;;;8.77;6.97;;;;;;;19.03;100.00;99535.75;5113022;28;20416;-69
2022/08/21 01:23:30;;;;;;;9.43;7.53;;;;;;;18.98;100.00;99527.28;5112859;28;20442;-72
2022/08/21 01:25:58;;;;;;;10.23;7.57;;;;;;;18.97;100.00;99525.59;5113016;28;20055;-72
2022/08/21 01:28:30;;;;;;;8.75;7.32;;;;;;;18.91;100.00;99524.38;5112454;28;20066;-72
2022/08/21 01:30:59;;;;;;;10.85;7.70;;;;;;;18.98;100.00;99511.06;5112324;28;20063;-71
2022/08/21 01:33:27;;;;;;;9.48;7.85;;;;;;;18.92;100.00;99528.78;5112507;28;20077;-72
2022/08/21 01:35:56;;;;;;;9.00;6.88;;;;;;;18.98;100.00;99527.28;5111297;28;20444;-70
2022/08/21 01:38:25;;;;;;;11.52;8.35;;;;;;;18.95;100.00;99527.59;5112572;28;20476;-70
2022/08/21 01:40:54;;;;;;;11.77;8.05;;;;;;;18.85;100.00;99528.59;5113118;28;20038;-71
2022/08/21 01:43:24;;;;;;;11.68;8.43;;;;;;;18.83;100.00;99519.81;5111523;28;20043;-71
2022/08/21 01:46:06;;;;;;;12.25;8.52;;;;;;;18.75;100.00;99517.06;5112945;28;20122;-70
2022/08/21 01:48:35;;;;;;;9.40;8.13;;;;;;;18.81;100.00;99519.09;5112479;28;20039;-71
2022/08/21 01:51:04;;;;;;;12.18;8.35;;;;;;;18.86;100.00;99519.47;5112580;28;20079;-70
2022/08/21 01:53:35;;;;;;;10.73;8.30;;;;;;;18.79;100.00;99521.13;5112455;28;20039;-70
2022/08/21 01:56:05;;;;;;;10.30;8.55;;;;;;;18.86;100.00;99524.03;5112822;28;20040;-72
2022/08/21 01:58:40;;;;;;;12.60;9.10;;;;;;;18.81;100.00;99524.50;5112541;28;20476;-70
2022/08/21 02:01:09;;;;;;;13.23;8.80;;;;;;;18.76;100.00;99532.25;5112534;28;20044;-70
2022/08/21 02:03:40;;;;;;;13.52;9.05;;;;;;;18.73;100.00;99523.63;5110760;28;20511;-71
2022/08/21 02:06:14;;;;;;;10.95;9.40;;;;;;;18.78;100.00;99527.53;5112624;28;20047;-70
2022/08/21 02:08:44;;;;;;;12.27;9.45;;;;;;;18.81;100.00;99529.91;5112249;28;20040;-71
2022/08/21 02:11:12;;;;;;;12.63;9.50;;;;;;;18.84;100.00;99521.50;5112481;28;20074;-70
2022/08/21 02:13:41;;;;;;;11.35;8.55;;;;;;;18.83;100.00;99522.50;5112290;28;20043;-71
2022/08/21 02:16:10;;;;;;;12.18;9.43;;;;;;;18.78;100.00;99516.72;5112313;28;20150;-71
2022/08/21 02:18:40;;;;;;;12.95;8.77;;;;;;;18.73;100.00;99513.69;5112425;28;20173;-70
2022/08/21 02:21:08;;;;;;;11.65;8.85;;;;;;;18.76;100.00;99521.44;5111021;28;20040;-71
2022/08/21 02:23:36;;;;;;;13.90;9.40;;;;;;;18.72;100.00;99521.91;5112227;28;20036;-71
2022/08/21 02:26:08;;;;;;;14.20;9.57;;;;;;;18.75;100.00;99517.06;5112443;28;20040;-70
2022/08/21 02:28:37;;;;;;;12.63;8.85;;;;;;;18.71;100.00;99512.13;5112449;28;20088;-71
2022/08/21 02:31:07;;;;;;;11.10;8.73;;;;;;;18.67;100.00;99529.69;5112762;28;20396;-70
2022/08/21 02:33:35;;;;;;;11.40;8.38;;;;;;;18.71;100.00;99515.66;5110862;28;20043;-70
2022/08/21 02:36:04;;;;;;;12.50;8.43;;;;;;;18.67;100.00;99522.41;5110943;28;20052;-70
2022/08/21 02:38:37;;;;;;;12.85;8.55;;;;;;;18.65;100.00;99510.94;5110790;28;20075;-70
2022/08/21 02:41:13;;;;;;;14.52;9.45;;;;;;;18.72;100.00;99509.28;5113401;28;20040;-70
2022/08/21 02:43:42;;;;;;;11.93;7.45;;;;;;;18.69;100.00;99501.50;5115819;28;20044;-72
2022/08/21 02:46:12;;;;;;;13.18;9.15;;;;;;;18.68;100.00;99499.81;5115884;27;20445;-72
2022/08/21 02:48:41;;;;;;;14.13;10.00;;;;;;;18.65;100.00;99496.59;5115863;28;20044;-71
2022/08/21 02:51:11;;;;;;;15.38;9.15;;;;;;;18.64;100.00;99509.22;5116081;28;20040;-71
2022/08/21 02:53:40;;;;;;;14.48;9.57;;;;;;;18.57;100.00;99505.47;5115579;28;20396;-71
2022/08/21 02:56:12;;;;;;;14.90;10.18;;;;;;;18.64;100.00;99508.38;5116012;28;20388;-71
2022/08/21 02:58:44;;;;;;;13.32;9.70;;;;;;;18.67;100.00;99503.50;5115774;28;20040;-72
2022/08/21 03:01:13;;;;;;;13.40;9.80;;;;;;;18.70;100.00;99497.78;5115962;28;20415;-71
2022/08/21 03:03:43;;;;;;;14.73;9.77;;;;;;;18.64;100.00;99498.41;5115630;28;20048;-71
2022/08/21 03:06:14;;;;;;;13.10;9.23;;;;;;;18.69;100.00;99500.66;5115767;28;20089;-72
2022/08/21 03:08:44;;;;;;;13.10;9.80;;;;;;;18.63;100.00;99512.94;5115358;28;20048;-72
2022/08/21 03:11:15;;;;;;;13.65;9.25;;;;;;;18.64;100.00;99513.78;5115378;28;20040;-72
2022/08/21 03:13:43;;;;;;;14.27;9.35;;;;;;;18.65;100.00;99516.34;5115386;28;20118;-72
2022/08/21 03:16:12;;;;;;;15.82;10.32;;;;;;;18.68;100.00;99516.00;5115157;28;20074;-71
2022/08/21 03:18:40;;;;;;;13.77;9.65;;;;;;;18.73;100.00;99510.97;5115052;28;20043;-72
2022/08/21 03:21:08;;;;;;;14.15;9.35;;;;;;;18.63;100.00;99506.69;5115210;28;20126;-73
2022/08/21 03:23:37;;;;;;;14.90;10.10;;;;;;;18.63;100.00;99515.63;5115006;28;20040;-74
2022/08/21 03:26:05;;;;;;;14.05;9.80;;;;;;;18.66;100.00;99511.78;5115255;28;20445;-74
2022/08/21 03:28:36;;;;;;;12.75;9.40;;;;;;;18.60;100.00;99515.94;5114569;28;20067;-74
2022/08/21 03:31:05;;;;;;;12.85;9.30;;;;;;;18.65;100.00;99512.78;5115097;28;20055;-74
2022/08/21 03:33:33;;;;;;;13.65;10.20;;;;;;;18.65;100.00;99505.53;5114876;28;20114;-70
2022/08/21 03:36:05;;;;;;;14.35;10.43;;;;;;;18.73;100.00;99508.28;5115057;28;20050;-71
2022/08/21 03:38:34;;;;;;;13.93;10.38;;;;;;;18.80;100.00;99514.69;5114963;28;20096;-71
2022/08/21 03:41:04;;;;;;;14.48;9.80;;;;;;;18.77;100.00;99504.22;5115005;28;20065;-70
2022/08/21 03:43:33;;;;;;;12.95;9.77;;;;;;;18.73;100.00;99508.28;5114984;28;20059;-72
2022/08/21 03:46:04;;;;;;;14.18;9.45;;;;;;;18.78;100.00;99514.03;5114909;28;20480;-71
2022/08/21 03:48:32;;;;;;;15.45;9.77;;;;;;;18.74;100.00;99517.22;5114494;28;20389;-71
2022/08/21 03:51:00;;;;;;;13.57;9.07;;;;;;;18.66;100.00;99515.31;5114785;28;20450;-69
2022/08/21 03:53:30;;;;;;;16.40;10.10;;;;;;;18.66;100.00;99512.63;5114151;28;20100;-71
2022/08/21 03:55:58;;;;;;;14.68;10.32;;;;;;;18.81;100.00;99510.13;5114540;28;20132;-69
2022/08/21 03:58:28;;;;;;;14.65;11.02;;;;;;;18.70;100.00;99524.78;5113241;28;20054;-71
2022/08/21 04:00:59;;;;;;;15.13;10.25;;;;;;;18.72;100.00;99514.69;5114943;28;20459;-70
2022/08/21 04:03:29;;;;;;;14.60;11.02;;;;;;;18.78;100.00;99519.44;5114158;28;20048;-78
2022/08/21 04:05:57;;;;;;;14.88;10.98;;;;;;;18.70;100.00;99519.38;5114557;28;20546;-71
2022/08/21 04:08:25;;;;;;;15.10;10.23;;;;;;;18.74;100.00;99520.78;5114259;28;20058;-71
2022/08/21 04:10:56;;;;;;;17.05;11.23;;;;;;;18.74;100.00;99525.34;5114546;28;20043;-70
2022/08/21 04:13:24;;;;;;;15.65;10.93;;;;;;;18.81;100.00;99539.88;5114307;28;20040;-70
2022/08/21 04:15:52;;;;;;;14.40;10.07;;;;;;;18.73;100.00;99535.28;5114058;28;20472;-70
2022/08/21 04:18:21;;;;;;;15.60;10.38;;;;;;;18.74;100.00;99531.59;5114338;28;20455;-71
2022/08/21 04:20:54;;;;;;;17.35;10.57;;;;;;;18.81;100.00;99529.91;5113737;28;20055;-71
2022/08/21 04:23:22;;;;;;;;;;;;;;;18.81;100.00;99532.59;5114904;28;20035;-71
2022/08/21 04:25:52;;;;;;;15.68;10.75;;;;;;;18.92;100.00;99536.91;5112334;28;19956;-71
2022/08/21 04:28:21;;;;;;;15.93;10.75;;;;;;;18.92;100.00;99533.34;5114250;28;20130;-70
2022/08/21 04:30:51;;;;;;;12.75;9.52;;;;;;;18.89;100.00;99537.19;5113523;28;20044;-70
2022/08/21 04:33:20;;;;;;;16.55;11.55;;;;;;;18.87;100.00;99539.22;5112719;28;20130;-70
2022/08/21 04:35:50;;;;;;;15.02;10.73;;;;;;;18.96;100.00;99542.81;5113526;28;20510;-70
2022/08/21 04:38:18;;;;;;;17.10;10.90;;;;;;;18.90;100.00;99541.59;5113666;28;20123;-71
2022/08/21 04:40:48;;;;;;;14.82;10.63;;;;;;;18.88;100.00;99539.06;5113294;28;20126;-71
2022/08/21 04:43:16;;;;;;;15.50;11.40;;;;;;;18.89;100.00;99542.59;5113789;28;20039;-70
2022/08/21 04:45:47;;;;;;;14.35;10.00;;;;;;;19.01;100.00;99543.16;5113532;28;20042;-71
2022/08/21 04:48:18;;;;;;;17.67;11.48;;;;;;;18.94;100.00;99547.53;5113461;28;20112;-71
2022/08/21 04:50:53;;;;;;;14.60;10.60;;;;;;;18.97;100.00;99552.59;5113470;28;20040;-71
2022/08/21 04:53:24;;;;;;;15.43;11.32;;;;;;;18.95;100.00;99549.22;5113428;28;20071;-71
2022/08/21 04:55:55;;;;;;;15.40;10.75;;;;;;;19.08;100.00;99555.84;5113431;28;20047;-71
2022/08/21 04:58:27;;;;;;;16.80;10.75;;;;;;;19.13;100.00;99558.06;5113683;28;20039;-71
2022/08/21 05:00:58;;;;;;;14.40;10.23;;;;;;;19.04;100.00;99559.06;5113701;28;20043;-71
2022/08/21 05:03:27;;;;;;;16.52;11.18;;;;;;;19.09;100.00;99556.69;5113638;28;20040;-71
2022/08/21 05:05:56;;;;;;;15.38;10.98;;;;;;;19.06;100.00;99562.44;5112086;28;20104;-70
2022/08/21 05:08:27;;;;;;;15.60;11.07;;;;;;;19.13;100.00;99560.78;5113340;28;20055;-71
2022/08/21 05:10:56;;;;;;;18.42;11.57;;;;;;;19.06;100.00;99557.88;5113301;28;20071;-70
2022/08/21 05:13:28;;;;;;;14.43;10.32;;;;;;;19.14;100.00;99555.22;5113161;28;20114;-69
2022/08/21 05:15:56;;;;;;;14.43;10.57;;;;;;;19.09;100.00;99562.09;5113003;28;20103;-70
2022/08/21 05:18:25;;;;;;;12.50;10.18;;;;;;;19.16;100.00;99560.44;5112821;28;20040;-70
2022/08/21 05:20:53;;;;;;;12.57;9.70;;;;;;;19.23;100.00;99553.38;5112926;28;20045;-71
2022/08/21 05:23:22;;;;;;;14.10;10.00;;;;;;;19.11;100.00;99554.69;5113310;28;20543;-73
2022/08/21 05:25:50;;;;;;;13.38;9.52;;;;;;;19.17;100.00;99562.13;5112625;28;20109;-69
2022/08/21 05:28:19;;;;;;;11.60;9.18;;;;;;;19.21;100.00;99560.81;5112667;28;20056;-70
2022/08/21 05:30:48;;;;;;;12.85;8.63;;;;;;;19.17;100.00;99554.88;5112553;28;20063;-71
2022/08/21 05:33:16;;;;;;;11.55;8.73;;;;;;;19.17;100.00;99556.72;5113117;28;20039;-71
2022/08/21 05:35:44;;;;;;;12.85;8.63;;;;;;;19.27;100.00;99560.13;5111302;28;20467;-69
2022/08/21 05:38:13;;;;;;;9.77;7.25;;;;;;;19.30;100.00;99559.81;5112974;28;20048;-70
2022/08/21 05:40:47;;;;;;;10.43;7.77;;;;;;;19.34;100.00;99561.19;5111281;28;20420;-71
2022/08/21 05:43:16;;;;;;;11.40;7.82;;;;;;;19.23;100.00;99569.59;5112928;28;20067;-70
2022/08/21 05:45:44;;;;;;;12.13;7.95;;;;;;;19.25;100.00;99562.16;5112422;28;20047;-70
2022/08/21 05:48:15;;;;;;;10.50;7.72;;;;;;;19.24;100.00;99555.06;5112636;28;20078;-69
2022/08/21 05:50:43;;;;;;;12.90;8.32;;;;;;;19.36;100.00;99552.91;5112313;28;20052;-70
2022/08/21 05:53:12;;;;;;;10.25;7.60;;;;;;;19.44;100.00;99559.16;5111249;28;20484;-71
2022/08/21 05:55:41;;;;;;;9.85;7.15;;;;;;;19.46;100.00;99561.72;5112514;28;20100;-69
2022/08/21 05:58:16;;;;;;;10.80;7.43;;;;;;;19.43;100.00;99564.75;5111376;28;20130;-69
2022/08/21 06:00:47;;;;;;;9.25;7.38;;;;;;;19.51;100.00;99562.06;5112338;28;20147;-69
2022/08/21 06:03:18;;;;;;;11.93;7.80;;;;;;;19.51;100.00;99566.63;5112929;28;20071;-71
2022/08/21 06:05:47;;;;;;;9.48;7.05;;;;;;;19.67;100.00;99562.09;5111143;28;20044;-71
2022/08/21 06:08:16;;;;;;;9.95;7.03;;;;;;;19.71;100.00;99566.19;5110971;28;20385;-71
2022/08/21 06:10:46;;;;;;;9.15;6.70;;;;;;;19.78;100.00;99560.94;5112387;28;20055;-71
2022/08/21 06:13:16;;;;;;;11.40;7.72;;;;;;;19.74;100.00;99562.28;5112532;28;20039;-70
2022/08/21 06:15:45;;;;;;;11.00;7.38;;;;;;;19.60;100.00;99561.09;5112395;28;20035;-71
2022/08/21 06:18:13;;;;;;;10.48;7.03;;;;;;;19.62;100.00;99563.63;5116406;28;20040;-71
2022/08/21 06:20:42;;;;;;;8.88;7.13;;;;;;;19.71;100.00;99562.63;5116139;28;20048;-71
2022/08/21 06:23:10;;;;;;;10.27;6.82;;;;;;;19.79;100.00;99569.94;5116643;28;20054;-70
2022/08/21 06:25:38;;;;;;;8.25;6.53;;;;;;;19.72;100.00;99569.75;5115935;28;20043;-71
2022/08/21 06:28:08;;;;;;;9.68;7.07;;;;;;;19.65;100.00;99580.38;5116125;28;20097;-71
2022/08/21 06:30:39;;;;;;;8.10;6.55;;;;;;;19.69;100.00;99573.63;5115971;28;20047;-75
2022/08/21 06:33:08;;;;;;;11.43;6.95;;;;;;;19.69;100.00;99580.91;5114740;28;20188;-71
2022/08/21 06:35:36;;;;;;;10.23;6.88;;;;;;;19.66;100.00;99586.63;5115833;28;20039;-75
2022/08/21 06:38:09;;;;;;;8.35;6.90;;;;;;;19.76;100.00;99587.31;5116196;28;20063;-72
2022/08/21 06:40:38;;;;;;;8.98;6.72;;;;;;;19.67;100.00;99572.09;5115920;28;20112;-72
2022/08/21 06:43:17;;;;;;;8.30;6.05;;;;;;;19.99;100.00;99588.38;5116292;28;20087;-70
2022/08/21 06:45:47;;;;;;;9.68;6.18;;;;;;;19.94;100.00;99585.31;5115859;28;20044;-71
2022/08/21 06:48:15;;;;;;;8.65;6.22;;;;;;;20.15;100.00;99581.25;5116170;28;20047;-71
2022/08/21 06:50:47;;;;;;;8.77;6.07;;;;;;;20.22;100.00;99576.84;5115824;28;20048;-72
2022/08/21 06:53:17;;;;;;;7.80;5.72;;;;;;;20.32;100.00;99574.81;5115881;28;20450;-72
2022/08/21 06:55:46;;;;;;;9.13;6.38;;;;;;;20.69;100.00;99578.84;5115863;28;20054;-72
2022/08/21 06:58:16;;;;;;;10.25;6.07;;;;;;;20.91;100.00;99578.09;5114711;28;20044;-72
2022/08/21 07:00:48;;;;;;;9.23;6.07;;;;;;;20.93;100.00;99570.63;5115719;28;20438;-70
2022/08/21 07:03:21;;;;;;;7.80;5.82;;;;;;;21.00;100.00;99571.59;5115737;28;20138;-70
2022/08/21 07:05:50;;;;;;;7.65;5.47;;;;;;;20.98;100.00;99579.09;5115427;28;20131;-70
2022/08/21 07:08:18;;;;;;;7.97;5.85;;;;;;;21.30;100.00;99571.84;5115380;28;20051;-70
2022/08/21 07:10:48;;;;;;;7.82;5.63;;;;;;;21.46;100.00;99576.34;5115081;28;20044;-70
2022/08/21 07:13:16;;;;;;;9.70;6.03;;;;;;;21.22;100.00;99588.97;5114219;28;20066;-70
2022/08/21 07:15:45;;;;;;;8.60;6.03;;;;;;;21.03;100.00;99581.25;5113723;28;20057;-71
2022/08/21 07:18:15;;;;;;;7.82;5.75;;;;;;;20.88;100.00;99583.03;5115269;28;20071;-69
2022/08/21 07:20:43;;;;;;;9.68;6.38;;;;;;;21.02;100.00;99585.00;5115288;28;20049;-73
2022/08/21 07:23:16;;;;;;;9.32;5.18;;;;;;;21.07;100.00;99583.44;5115210;28;20447;-74
2022/08/21 07:25:44;;;;;;;7.80;5.05;;;;;;;21.19;100.00;99585.78;5118093;28;20097;-75
2022/08/21 07:28:12;;;;;;;9.30;5.75;;;;;;;21.35;100.00;99580.31;5112536;28;20476;-74
2022/08/21 07:30:40;;;;;;;9.15;5.80;;;;;;;21.22;100.00;99579.97;5114762;28;20393;-75
2022/08/21 07:33:09;;;;;;;7.47;5.60;;;;;;;21.49;100.00;99576.81;5114786;28;20043;-72
2022/08/21 07:35:38;;;;;;;7.85;5.47;;;;;;;21.43;100.00;99582.97;5114659;28;20071;-72
2022/08/21 07:38:07;;;;;;;8.95;5.53;;;;;;;21.38;100.00;99579.94;5113393;28;20075;-72
2022/08/21 07:40:35;;;;;;;7.95;5.70;;;;;;;21.56;100.00;99574.25;5114604;28;20135;-71
2022/08/21 07:43:03;;;;;;;8.20;5.82;;;;;;;21.60;100.00;99570.97;5114514;28;20047;-70
2022/08/21 07:45:31;;;;;;;8.60;6.10;;;;;;;21.75;100.00;99570.22;5114753;28;20101;-69
2022/08/21 07:48:00;;;;;;;9.95;6.10;;;;;;;21.78;100.00;99562.56;5114202;28;20574;-72
2022/08/21 07:50:28;;;;;;;8.90;5.78;;;;;;;22.08;100.00;99566.25;5112844;28;20048;-70
2022/08/21 07:52:58;;;;;;;9.25;5.80;;;;;;;22.34;100.00;99562.28;5112929;28;20058;-72
2022/08/21 07:55:26;;;;;;;8.32;5.88;;;;;;;22.24;100.00;99560.69;5114418;28;20044;-70
2022/08/21 07:57:54;;;;;;;9.02;5.82;;;;;;;22.17;100.00;99559.72;5114055;28;20054;-72
2022/08/21 08:00:25;;;;;;;8.18;5.60;;;;;;;22.49;100.00;99563.16;5114091;28;20040;-69
2022/08/21 08:02:54;;;;;;;7.30;5.45;;;;;;;22.45;100.00;99562.69;5112811;28;20404;-72
2022/08/21 08:05:25;;;;;;;10.40;5.57;;;;;;;22.83;100.00;99552.56;5114492;28;20116;-74
2022/08/21 08:07:53;;;;;;;8.38;6.43;;;;;;;22.70;100.00;99549.69;5113999;28;20131;-73
2022/08/21 08:10:24;;;;;;;9.77;6.18;;;;;;;22.87;100.00;99549.50;5114155;28;20123;-72
2022/08/21 08:12:54;;;;;;;7.30;5.00;;;;;;;22.61;100.00;99548.09;5113887;28;20153;-72
2022/08/21 08:15:26;;;;;;;9.55;6.05;;;;;;;22.60;100.00;99548.28;5112399;28;20528;-71
2022/08/21 08:17:55;;;;;;;8.95;6.10;;;;;;;22.76;100.00;99546.19;5113702;28;20047;-72
2022/08/21 08:20:26;;;;;;;8.43;6.38;;;;;;;22.81;100.00;99534.78;5114227;28;20112;-72
2022/08/21 08:22:55;;;;;;;9.60;5.95;;;;;;;22.75;100.00;99535.50;5112379;28;20048;-72
2022/08/21 08:25:28;;;;;;;8.95;6.35;;;;;;;22.88;100.00;99534.91;5112437;28;20054;-71
2022/08/21 08:28:04;;;;;;;8.43;6.05;;;;;;;22.87;100.00;99539.47;5113636;28;20500;-69
2022/08/21 08:30:45;;;;;;;8.20;5.63;;;;;;;23.12;100.00;99532.69;5113952;28;20043;-76
2022/08/21 08:33:13;;;;;;;9.13;5.80;;;;;;;23.11;100.00;99539.16;5112362;28;20063;-73
2022/08/21 08:35:42;;;;;;;9.13;5.90;;;;;;;23.35;100.00;99542.56;5113589;28;20046;-73
2022/08/21 08:38:10;;;;;;;7.75;5.97;;;;;;;23.34;100.00;99536.28;5112028;28;20047;-76
2022/08/21 08:40:45;;;;;;;7.45;5.55;;;;;;;23.48;100.00;99533.75;5113697;28;20496;-70
2022/08/21 08:43:14;;;;;;;8.85;5.90;;;;;;;23.34;100.00;99530.84;5113847;28;20040;-73
2022/08/21 08:45:48;;;;;;;7.20;5.70;;;;;;;23.42;100.00;99528.03;5113863;28;20046;-73
2022/08/21 08:48:35;;;;;;;7.88;5.32;;;;;;;23.49;100.00;99529.97;5112283;28;20460;-73
2022/08/21 08:51:08;;;;;;;9.27;6.13;;;;;;;23.65;100.00;99532.50;5112119;28;20453;-73
2022/08/21 08:53:46;;;;;;;7.32;5.43;;;;;;;23.73;100.00;99529.63;5113616;28;20059;-76
2022/08/21 08:56:19;;;;;;;8.30;6.13;;;;;;;23.63;100.00;99529.94;5113426;28;20053;-75
2022/08/21 08:58:48;;;;;;;8.55;5.57;;;;;;;23.66;100.00;99532.28;5113123;28;20404;-73
2022/08/21 09:01:19;;;;;;;8.95;5.75;;;;;;;23.96;100.00;99541.16;5112145;28;20063;-73
2022/08/21 09:03:51;;;;;;;7.38;6.10;;;;;;;23.91;100.00;99540.06;5113272;28;20039;-75
2022/08/21 09:06:35;;;;;;;10.45;5.75;;;;;;;23.55;100.00;99542.84;5113648;28;20043;-71
2022/08/21 09:09:19;;;;;;;8.60;6.22;;;;;;;23.67;100.00;99535.88;5111876;28;20039;-80
2022/08/21 09:11:58;;;;;;;7.30;5.75;;;;;;;23.77;100.00;99540.97;5112538;28;20445;-72
2022/08/21 09:14:40;;;;;;;8.45;5.20;;;;;;;24.20;100.00;99544.50;5113123;28;20047;-75
2022/08/21 09:17:17;;;;;;;9.48;5.90;;;;;;;24.34;100.00;99542.78;5112891;28;20042;-73
2022/08/21 09:20:09;;;;;;;9.70;5.88;;;;;;;24.27;100.00;99543.53;5112533;28;20197;-73
2022/08/21 09:22:47;;;;;;;9.60;6.25;;;;;;;24.58;100.00;99539.56;5112306;28;20158;-74
2022/08/21 09:25:22;;;;;;;9.27;5.47;;;;;;;24.51;100.00;99538.69;5112902;28;20153;-73
2022/08/21 09:27:53;;;;;;;7.53;5.88;;;;;;;24.44;100.00;99544.09;5094672;28;20062;-78
2022/08/21 09:30:28;;;;;;;9.80;6.93;;;;;;;24.23;100.00;99541.41;5093993;28;20131;-83
2022/08/21 09:32:57;;;;;;;8.32;6.05;;;;;;;24.75;100.00;99540.09;5112946;28;20040;-77
2022/08/21 09:35:26;;;;;;;7.68;5.88;;;;;;;24.34;100.00;99543.63;5112554;28;20056;-70
2022/08/21 09:37:57;;;;;;;8.02;5.57;;;;;;;24.36;100.00;99529.78;5112727;28;20126;-74
2022/08/21 09:40:33;;;;;;;8.60;6.10;;;;;;;24.63;100.00;99534.38;5112142;28;20054;-78
2022/08/21 09:43:06;;;;;;;9.07;6.55;;;;;;;24.74;100.00;99535.69;5112509;28;20065;-73
2022/08/21 09:45:36;;;;;;;9.35;6.55;;;;;;;24.73;100.00;99539.47;5112770;28;20049;-73
2022/08/21 09:48:12;;;;;;;8.82;6.35;;;;;;;24.96;100.00;99530.97;5112316;28;20048;-75
2022/08/21 09:50:41;;;;;;;7.60;5.88;;;;;;;24.89;100.00;99535.56;5111668;28;20048;-73
2022/08/21 09:53:18;;;;;;;8.82;6.20;;;;;;;24.88;100.00;99529.25;5093888;28;20053;-75
2022/08/21 09:58:45;;;;;;;9.67;6.40;;;;;;;25.09;100.00;99529.19;5112402;28;20039;-71
2022/08/21 10:01:15;;;;;;;9.63;7.00;;;;;;;25.06;100.00;99526.84;5093674;28;20302;-69
2022/08/21 10:03:44;;;;;;;8.48;6.32;;;;;;;24.92;100.00;99529.72;5093240;28;20400;-71
2022/08/21 10:06:23;;;;;;;9.50;6.70;;;;;;;24.82;100.00;99527.34;5093479;28;20440;-69
2022/08/21 10:08:52;;;;;;;11.00;7.07;;;;;;;24.70;100.00;99520.75;5111590;28;20175;-70
2022/08/21 10:11:28;;;;;;;7.25;5.80;;;;;;;25.15;100.00;99530.25;5111823;28;20043;-71
2022/08/21 10:14:07;;;;;;;8.57;6.68;;;;;;;24.76;100.00;99525.44;5111888;28;20051;-82
2022/08/21 10:16:48;;;;;;;10.98;5.90;;;;;;;24.98;100.00;99529.72;5094300;28;20357;-71
2022/08/21 10:19:26;;;;;;;8.55;5.88;;;;;;;25.06;100.00;99536.94;5112105;28;20107;-74
2022/08/21 10:22:03;;;;;;;10.38;6.75;;;;;;;24.83;100.00;99545.41;5112006;28;20513;-73
2022/08/21 10:24:35;;;;;;;9.73;6.93;;;;;;;24.75;100.00;99535.50;5111949;28;20373;-72
2022/08/21 10:27:16;;;;;;;11.03;6.50;;;;;;;24.95;100.00;99529.28;5112314;28;20126;-71
2022/08/21 10:29:54;;;;;;;9.10;6.90;;;;;;;24.74;100.00;99536.53;5093804;28;20054;-74
2022/08/21 10:32:37;;;;;;;11.05;6.68;;;;;;;24.92;100.00;99524.25;5112383;28;20044;-75
2022/08/21 10:35:13;;;;;;;8.02;6.18;;;;;;;25.03;100.00;99527.28;5093904;28;20048;-75
2022/08/21 10:37:56;;;;;;;9.07;5.80;;;;;;;24.70;100.00;99532.50;5112500;28;20076;-73
2022/08/21 10:40:30;;;;;;;9.93;6.93;;;;;;;24.48;100.00;99530.91;5111655;28;20396;-74
2022/08/21 10:43:10;;;;;;;8.75;6.13;;;;;;;24.55;100.00;99531.81;5112151;28;20043;-74
2022/08/21 10:45:51;;;;;;;9.45;7.28;;;;;;;24.18;100.00;99536.53;5093908;28;20134;-72
2022/08/21 10:48:26;;;;;;;10.90;7.68;;;;;;;24.17;100.00;99520.38;5093255;28;20052;-71
2022/08/21 10:51:00;;;;;;;10.48;7.22;;;;;;;23.90;100.00;99530.22;5112205;28;20052;-70
2022/08/21 10:53:42;;;;;;;12.48;8.10;;;;;;;24.03;100.00;99526.75;5095693;28;20459;-70
2022/08/21 10:56:17;;;;;;;12.35;7.60;;;;;;;24.16;100.00;99529.59;5111732;28;20048;-73
2022/08/21 10:58:56;;;;;;;9.25;7.35;;;;;;;24.12;100.00;99522.84;5087238;28;20154;-73
2022/08/21 11:01:29;;;;;;;11.88;7.60;;;;;;;24.03;100.00;99524.91;5102563;28;20054;-72
2022/08/21 11:04:10;;;;;;;10.35;7.05;;;;;;;23.96;100.00;99518.53;5113625;28;20047;-71
2022/08/21 11:06:42;;;;;;;9.88;6.97;;;;;;;24.02;100.00;99522.34;5078464;28;20044;-72
2022/08/21 11:09:14;;;;;;;9.82;7.10;;;;;;;23.98;100.00;99522.75;5096393;28;20093;-74
2022/08/21 11:11:48;;;;;;;10.00;6.90;;;;;;;23.65;100.00;99516.16;5087574;28;20142;-73
2022/08/21 11:14:32;;;;;;;;;;;;;;;23.84;100.00;99515.50;5114870;28;20044;-73
2022/08/21 11:17:08;;;;;;;10.25;7.00;;;;;;;23.84;100.00;99514.66;5093507;28;20365;-78
2022/08/21 11:19:46;;;;;;;9.63;6.90;;;;;;;23.97;100.00;99515.63;5108166;28;20128;-77
2022/08/21 11:22:19;;;;;;;10.38;7.13;;;;;;;24.02;100.00;99516.91;5113996;28;20051;-74
2022/08/21 11:24:53;;;;;;;9.82;7.07;;;;;;;24.23;100.00;99519.59;5092729;28;20036;-76
2022/08/21 11:27:27;;;;;;;11.40;7.25;;;;;;;24.31;100.00;99519.47;5096217;28;20095;-74
2022/08/21 11:29:58;;;;;;;8.95;6.85;;;;;;;24.55;100.00;99519.00;5085226;28;20521;-74
2022/08/21 11:32:48;;;;;;;10.00;7.18;;;;;;;24.81;100.00;99522.94;5114595;28;20043;-78
2022/08/21 11:35:28;;;;;;;10.45;7.60;;;;;;;24.65;100.00;99515.09;5114375;28;20472;-73
2022/08/21 11:38:15;;;;;;;10.52;7.97;;;;;;;24.57;100.00;99517.97;5114439;28;20533;-74
2022/08/21 11:40:57;;;;;;;12.85;7.10;;;;;;;24.39;100.00;99513.88;5092858;28;20408;-79
2022/08/21 11:43:37;;;;;;;12.25;7.68;;;;;;;24.59;100.00;99514.00;5095298;28;20361;-75